createdAt,value
2017-12-24T00:00:20.226Z,7.70
2017-12-24T00:02:46.602Z,7.70
2017-12-24T00:05:13.718Z,7.40
2017-12-24T00:07:40.119Z,7.40
2017-12-24T00:10:06.496Z,7.30
2017-12-24T00:12:33.666Z,7.50
2017-12-24T00:15:01.535Z,7.60
2017-12-24T00:17:28.246Z,7.50
2017-12-24T00:19:54.633Z,7.60
2017-12-24T00:22:21.750Z,7.60
2017-12-24T00:24:49.619Z,7.50
2017-12-24T00:27:16.004Z,7.50
2017-12-24T00:29:42.451Z,7.60
2017-12-24T00:32:09.799Z,7.60
2017-12-24T00:34:36.184Z,7.50
2017-12-24T00:37:02.569Z,7.70
2017-12-24T00:39:29.002Z,7.60
2017-12-24T00:41:55.377Z,7.70
2017-12-24T00:44:21.770Z,7.70
2017-12-24T00:46:48.175Z,7.80
2017-12-24T00:49:14.561Z,7.70
2017-12-24T00:51:40.944Z,7.50
2017-12-24T00:54:07.411Z,7.50
2017-12-24T00:56:33.789Z,7.50
2017-12-24T00:59:00.163Z,7.50
2017-12-24T01:01:26.538Z,7.30
2017-12-24T01:03:52.965Z,7.50
2017-12-24T01:06:19.354Z,7.70
2017-12-24T01:08:45.754Z,7.70
2017-12-24T01:11:12.127Z,7.50
2017-12-24T01:13:38.508Z,7.40
2017-12-24T01:16:05.642Z,7.30
2017-12-24T01:18:32.006Z,7.30
2017-12-24T01:20:58.399Z,7.20
2017-12-24T01:23:25.538Z,7.00
2017-12-24T01:25:52.651Z,6.70
2017-12-24T01:28:19.016Z,6.70
2017-12-24T01:30:45.417Z,6.70
2017-12-24T01:33:11.802Z,6.60
2017-12-24T01:35:38.231Z,6.50
2017-12-24T01:38:05.369Z,6.40
2017-12-24T01:40:31.787Z,6.40
2017-12-24T01:42:58.195Z,6.40
2017-12-24T01:45:24.543Z,6.20
2017-12-24T01:47:51.082Z,6.20
2017-12-24T01:50:17.488Z,6.10
2017-12-24T01:52:43.859Z,6.20
2017-12-24T01:55:10.243Z,6.20
2017-12-24T01:57:36.625Z,6.10
2017-12-24T02:00:03.055Z,6.10
2017-12-24T02:02:30.916Z,6.10
2017-12-24T02:04:57.318Z,6.10
2017-12-24T02:07:23.703Z,6.10
2017-12-24T02:09:50.814Z,6.10
2017-12-24T02:12:17.194Z,6.10
2017-12-24T02:14:44.319Z,6.20
2017-12-24T02:17:10.731Z,6.20
2017-12-24T02:19:37.141Z,6.20
2017-12-24T02:22:03.524Z,6.20
2017-12-24T02:24:30.647Z,6.20
2017-12-24T02:26:57.049Z,6.20
2017-12-24T02:29:23.442Z,6.40
2017-12-24T02:31:50.576Z,6.50
2017-12-24T02:34:17.693Z,6.50
2017-12-24T02:36:44.070Z,6.40
2017-12-24T02:39:11.194Z,6.50
2017-12-24T02:41:37.584Z,6.40
2017-12-24T02:44:03.984Z,6.40
2017-12-24T02:46:30.544Z,6.40
2017-12-24T02:48:56.980Z,6.30
2017-12-24T02:51:23.409Z,6.20
2017-12-24T02:53:49.803Z,6.00
2017-12-24T02:56:16.480Z,6.00
2017-12-24T02:58:42.883Z,5.90
2017-12-24T03:01:10.030Z,5.90
2017-12-24T03:03:36.447Z,5.90
2017-12-24T03:06:02.854Z,5.90
2017-12-24T03:08:29.228Z,5.90
2017-12-24T03:10:57.094Z,5.90
2017-12-24T03:13:23.533Z,5.90
2017-12-24T03:15:50.666Z,6.00
2017-12-24T03:18:17.066Z,6.00
2017-12-24T03:20:43.465Z,6.00
2017-12-24T03:23:10.622Z,6.00
2017-12-24T03:25:37.757Z,6.00
2017-12-24T03:28:04.863Z,6.10
2017-12-24T03:30:31.249Z,6.10
2017-12-24T03:32:57.637Z,6.30
2017-12-24T03:35:24.035Z,6.30
2017-12-24T03:37:50.442Z,6.20
2017-12-24T03:40:16.918Z,6.10
2017-12-24T03:42:43.309Z,6.10
2017-12-24T03:45:09.706Z,6.10
2017-12-24T03:47:36.231Z,6.00
2017-12-24T03:50:04.100Z,6.00
2017-12-24T03:52:30.491Z,6.00
2017-12-24T03:54:56.875Z,6.00
2017-12-24T03:57:23.371Z,6.00
2017-12-24T03:59:49.804Z,6.10
2017-12-24T04:02:16.188Z,6.20
2017-12-24T04:04:43.337Z,6.30
2017-12-24T04:07:10.473Z,6.40
2017-12-24T04:09:36.838Z,6.30
2017-12-24T04:12:03.250Z,6.30
2017-12-24T04:14:30.379Z,6.10
2017-12-24T04:16:56.751Z,6.10
2017-12-24T04:19:23.145Z,6.00
2017-12-24T04:21:49.514Z,6.00
2017-12-24T04:24:15.906Z,6.00
2017-12-24T04:26:42.294Z,5.90
2017-12-24T04:29:08.724Z,5.90
2017-12-24T04:31:35.119Z,6.10
2017-12-24T04:34:02.251Z,6.10
2017-12-24T04:36:28.649Z,6.10
2017-12-24T04:38:55.019Z,6.10
2017-12-24T04:41:21.430Z,6.10
2017-12-24T04:43:47.825Z,6.10
2017-12-24T04:46:14.198Z,6.10
2017-12-24T04:48:40.590Z,6.10
2017-12-24T04:51:06.980Z,6.00
2017-12-24T04:53:33.407Z,6.20
2017-12-24T04:56:01.286Z,6.20
2017-12-24T04:58:28.492Z,6.10
2017-12-24T05:00:54.901Z,6.10
2017-12-24T05:03:21.288Z,6.20
2017-12-24T05:05:47.697Z,6.00
2017-12-24T05:08:14.082Z,5.90
2017-12-24T05:10:41.225Z,5.80
2017-12-24T05:13:08.342Z,5.70
2017-12-24T05:15:34.742Z,5.70
2017-12-24T05:18:01.124Z,5.70
2017-12-24T05:20:28.238Z,5.70
2017-12-24T05:22:54.622Z,5.70
2017-12-24T05:25:21.739Z,5.50
2017-12-24T05:27:48.175Z,5.40
2017-12-24T05:30:14.563Z,5.50
2017-12-24T05:32:40.980Z,5.40
2017-12-24T05:35:08.094Z,5.40
2017-12-24T05:37:34.487Z,5.40
2017-12-24T05:40:01.691Z,5.30
2017-12-24T05:42:28.863Z,5.20
2017-12-24T05:44:55.260Z,5.20
2017-12-24T05:47:23.124Z,5.20
2017-12-24T05:49:49.507Z,5.20
2017-12-24T05:52:15.888Z,5.20
2017-12-24T05:54:42.271Z,5.20
2017-12-24T05:57:08.655Z,5.20
2017-12-24T05:59:35.035Z,5.20
2017-12-24T06:02:01.483Z,5.10
2017-12-24T06:04:27.877Z,5.30
2017-12-24T06:06:54.327Z,5.30
2017-12-24T06:09:20.713Z,5.40
2017-12-24T06:11:47.107Z,5.40
2017-12-24T06:14:13.500Z,5.50
2017-12-24T06:16:40.646Z,5.40
2017-12-24T06:19:07.801Z,5.40
2017-12-24T06:21:34.946Z,5.30
2017-12-24T06:24:02.078Z,5.40
2017-12-24T06:26:28.498Z,5.40
2017-12-24T06:28:54.892Z,5.60
2017-12-24T06:31:21.300Z,5.60
2017-12-24T06:33:48.492Z,5.60
2017-12-24T06:36:14.908Z,5.60
2017-12-24T06:38:41.304Z,5.60
2017-12-24T06:41:08.465Z,5.60
2017-12-24T06:43:35.578Z,5.50
2017-12-24T06:46:01.986Z,5.50
2017-12-24T06:48:28.543Z,5.50
2017-12-24T06:50:54.925Z,5.50
2017-12-24T06:53:21.311Z,5.40
2017-12-24T06:55:47.719Z,5.50
2017-12-24T06:58:14.132Z,5.60
2017-12-24T07:00:41.259Z,5.30
2017-12-24T07:03:08.475Z,5.40
2017-12-24T07:05:34.873Z,5.40
2017-12-24T07:08:01.334Z,5.50
2017-12-24T07:10:27.719Z,5.50
2017-12-24T07:12:54.842Z,5.60
2017-12-24T07:15:22.001Z,5.60
2017-12-24T07:17:49.180Z,5.80
2017-12-24T07:20:15.543Z,5.80
2017-12-24T07:22:41.909Z,5.80
2017-12-24T07:25:08.297Z,5.80
2017-12-24T07:27:36.205Z,5.90
2017-12-24T07:30:03.327Z,5.70
2017-12-24T07:32:29.718Z,5.70
2017-12-24T07:34:56.864Z,5.60
2017-12-24T07:37:23.218Z,5.60
2017-12-24T07:39:49.613Z,5.70
2017-12-24T07:42:16.716Z,5.60
2017-12-24T07:44:43.978Z,5.60
2017-12-24T07:47:10.355Z,5.60
2017-12-24T07:49:36.767Z,5.70
2017-12-24T07:52:03.887Z,5.70
2017-12-24T07:54:30.270Z,5.70
2017-12-24T07:56:56.674Z,5.70
2017-12-24T07:59:23.860Z,5.70
2017-12-24T08:01:50.245Z,5.80
2017-12-24T08:04:16.694Z,5.80
2017-12-24T08:06:43.845Z,5.80
2017-12-24T08:09:11.210Z,5.90
2017-12-24T08:11:38.352Z,5.90
2017-12-24T08:14:05.474Z,6.20
2017-12-24T08:16:33.346Z,6.10
2017-12-24T08:18:59.773Z,6.10
2017-12-24T08:21:26.162Z,6.20
2017-12-24T08:23:52.540Z,6.10
2017-12-24T08:26:18.918Z,6.20
2017-12-24T08:28:45.346Z,6.30
2017-12-24T08:31:11.728Z,6.60
2017-12-24T08:33:38.160Z,6.90
2017-12-24T08:36:04.530Z,7.00
2017-12-24T08:38:31.673Z,7.40
2017-12-24T08:40:58.843Z,7.20
2017-12-24T08:43:25.243Z,7.10
2017-12-24T08:45:53.110Z,7.00
2017-12-24T08:48:20.250Z,7.10
2017-12-24T08:50:47.379Z,7.20
2017-12-24T08:53:13.767Z,7.20
2017-12-24T08:55:40.900Z,7.60
2017-12-24T08:58:07.274Z,7.60
2017-12-24T09:00:33.659Z,7.80
2017-12-24T09:03:00.067Z,7.90
2017-12-24T09:05:26.450Z,8.30
2017-12-24T09:07:53.550Z,8.70
2017-12-24T09:10:20.049Z,8.70
2017-12-24T09:12:46.756Z,8.80
2017-12-24T09:15:13.895Z,8.50
2017-12-24T09:17:40.287Z,8.50
2017-12-24T09:20:06.662Z,8.60
2017-12-24T09:22:33.782Z,8.50
2017-12-24T09:25:00.164Z,8.40
2017-12-24T09:27:27.287Z,8.40
2017-12-24T09:29:53.675Z,8.40
2017-12-24T09:32:20.066Z,8.30
2017-12-24T09:34:48.365Z,8.00
2017-12-24T09:37:14.758Z,8.00
2017-12-24T09:39:41.229Z,8.00
2017-12-24T09:42:07.627Z,8.00
2017-12-24T09:44:33.989Z,8.10
2017-12-24T09:47:00.368Z,8.00
2017-12-24T09:49:26.740Z,7.90
2017-12-24T09:51:53.847Z,8.00
2017-12-24T09:54:20.255Z,8.00
2017-12-24T09:56:46.661Z,8.00
2017-12-24T09:59:13.771Z,8.10
2017-12-24T10:01:40.187Z,8.00
2017-12-24T10:04:06.576Z,8.00
2017-12-24T10:06:32.970Z,8.00
2017-12-24T10:08:59.351Z,8.00
2017-12-24T10:11:25.722Z,8.00
2017-12-24T10:13:52.155Z,8.30
2017-12-24T10:16:18.534Z,8.20
2017-12-24T10:18:45.711Z,8.30
2017-12-24T10:21:12.150Z,8.30
2017-12-24T10:23:38.607Z,8.30
2017-12-24T10:26:06.482Z,8.20
2017-12-24T10:28:32.924Z,8.20
2017-12-24T10:30:59.337Z,8.20
2017-12-24T10:33:27.215Z,8.30
2017-12-24T10:35:55.114Z,8.40
2017-12-24T10:38:21.482Z,8.40
2017-12-24T10:41:00.239Z,8.40
2017-12-24T10:43:28.983Z,8.30
2017-12-24T10:45:55.378Z,8.40
2017-12-24T10:48:22.513Z,8.40
2017-12-24T10:50:48.895Z,8.40
2017-12-24T10:53:15.291Z,8.50
2017-12-24T10:55:42.397Z,8.60
2017-12-24T10:58:08.854Z,8.60
2017-12-24T11:00:35.210Z,8.50
2017-12-24T11:03:01.628Z,8.50
2017-12-24T11:05:28.020Z,8.50
2017-12-24T11:07:54.411Z,8.60
2017-12-24T11:10:20.808Z,8.50
2017-12-24T11:12:47.183Z,8.40
2017-12-24T11:15:13.619Z,8.50
2017-12-24T11:17:40.009Z,8.50
2017-12-24T11:20:06.410Z,8.50
2017-12-24T11:22:32.785Z,8.40
2017-12-24T11:24:59.156Z,8.70
2017-12-24T11:27:25.630Z,8.60
2017-12-24T11:29:52.025Z,8.70
2017-12-24T11:32:18.421Z,8.50
2017-12-24T11:34:45.543Z,8.70
2017-12-24T11:37:11.915Z,8.70
2017-12-24T11:39:39.065Z,8.80
2017-12-24T11:42:05.525Z,8.80
2017-12-24T11:44:31.933Z,8.90
2017-12-24T11:46:58.357Z,9.00
2017-12-24T11:49:24.758Z,9.00
2017-12-24T11:51:51.203Z,9.10
2017-12-24T11:54:17.572Z,9.30
2017-12-24T11:56:43.956Z,9.30
2017-12-24T11:59:10.376Z,9.50
2017-12-24T12:01:36.765Z,9.60
2017-12-24T12:04:04.423Z,9.50
2017-12-24T12:06:30.827Z,9.60
2017-12-24T12:08:58.016Z,9.70
2017-12-24T12:11:24.428Z,9.70
2017-12-24T12:13:51.572Z,9.60
2017-12-24T12:16:18.707Z,9.50
2017-12-24T12:18:45.284Z,9.50
2017-12-24T12:21:12.578Z,9.20
2017-12-24T12:23:38.965Z,9.10
2017-12-24T12:26:05.348Z,9.10
2017-12-24T12:28:31.739Z,9.00
2017-12-24T12:30:58.156Z,8.90
2017-12-24T12:33:24.563Z,9.00
2017-12-24T12:35:51.731Z,9.10
2017-12-24T12:38:18.115Z,9.10
2017-12-24T12:40:44.527Z,9.00
2017-12-24T12:43:10.908Z,9.00
2017-12-24T12:45:37.281Z,9.00
2017-12-24T12:48:03.668Z,8.90
2017-12-24T12:50:30.052Z,8.90
2017-12-24T12:52:56.428Z,9.00
2017-12-24T12:55:22.815Z,9.20
2017-12-24T12:57:49.350Z,9.20
2017-12-24T13:00:15.848Z,9.20
2017-12-24T13:02:43.007Z,9.10
2017-12-24T13:05:10.395Z,9.10
2017-12-24T13:07:36.819Z,9.10
2017-12-24T13:10:03.215Z,9.00
2017-12-24T13:12:30.344Z,9.30
2017-12-24T13:14:56.716Z,9.30
2017-12-24T13:17:23.103Z,9.30
2017-12-24T13:19:49.549Z,9.30
2017-12-24T13:22:15.970Z,9.40
2017-12-24T13:24:42.332Z,9.20
2017-12-24T13:27:09.470Z,9.10
2017-12-24T13:29:36.605Z,9.10
2017-12-24T13:32:03.794Z,9.10
2017-12-24T13:34:30.496Z,9.10
2017-12-24T13:36:58.362Z,8.90
2017-12-24T13:39:24.727Z,8.90
2017-12-24T13:41:51.118Z,8.80
2017-12-24T13:44:17.513Z,8.60
2017-12-24T13:46:43.899Z,8.40
2017-12-24T13:49:11.019Z,8.50
2017-12-24T13:51:38.230Z,8.50
2017-12-24T13:54:04.664Z,8.50
2017-12-24T13:56:31.099Z,8.50
2017-12-24T13:58:57.472Z,8.60
2017-12-24T14:01:23.942Z,8.40
2017-12-24T14:03:50.400Z,8.40
2017-12-24T14:06:16.763Z,8.30
2017-12-24T14:08:43.148Z,8.10
2017-12-24T14:11:09.739Z,8.20
2017-12-24T14:13:36.105Z,8.30
2017-12-24T14:16:03.303Z,8.10
2017-12-24T14:18:29.646Z,8.10
2017-12-24T14:20:56.019Z,8.20
2017-12-24T14:23:23.154Z,7.90
2017-12-24T14:25:49.617Z,7.90
2017-12-24T14:28:16.864Z,7.70
2017-12-24T14:30:43.299Z,7.70
2017-12-24T14:33:09.727Z,7.60
2017-12-24T14:35:36.901Z,7.50
2017-12-24T14:38:04.014Z,7.70
2017-12-24T14:40:31.164Z,7.70
2017-12-24T14:42:58.303Z,7.70
2017-12-24T14:45:25.403Z,7.70
2017-12-24T14:47:51.802Z,7.70
2017-12-24T14:50:18.931Z,7.50
2017-12-24T14:52:46.787Z,7.60
2017-12-24T14:55:13.150Z,7.60
2017-12-24T14:57:40.262Z,7.40
2017-12-24T15:00:06.646Z,7.40
2017-12-24T15:02:33.791Z,7.20
2017-12-24T15:05:01.608Z,7.10
2017-12-24T15:07:27.987Z,7.10
2017-12-24T15:09:54.363Z,6.90
2017-12-24T15:12:20.751Z,6.90
2017-12-24T15:14:47.869Z,6.60
2017-12-24T15:17:15.031Z,6.50
2017-12-24T15:19:42.200Z,6.50
2017-12-24T15:22:09.318Z,6.40
2017-12-24T15:24:37.186Z,6.30
2017-12-24T15:27:03.658Z,6.30
2017-12-24T15:29:30.116Z,6.40
2017-12-24T15:31:56.528Z,6.30
2017-12-24T15:34:22.918Z,6.20
2017-12-24T15:36:50.781Z,6.20
2017-12-24T15:39:17.184Z,6.20
2017-12-24T15:41:43.601Z,6.10
2017-12-24T15:44:09.983Z,6.10
2017-12-24T15:46:37.088Z,6.00
2017-12-24T15:49:03.451Z,6.00
2017-12-24T15:51:29.832Z,6.00
2017-12-24T15:53:56.259Z,6.00
2017-12-24T15:56:22.654Z,6.20
2017-12-24T15:58:49.797Z,6.20
2017-12-24T16:01:16.171Z,6.20
2017-12-24T16:03:42.570Z,6.20
2017-12-24T16:06:10.434Z,5.90
2017-12-24T16:08:37.564Z,5.80
2017-12-24T16:11:03.990Z,5.80
2017-12-24T16:13:30.383Z,5.80
2017-12-24T16:15:56.812Z,5.60
2017-12-24T16:18:23.254Z,5.70
2017-12-24T16:20:49.631Z,5.70
2017-12-24T16:23:16.008Z,5.70
2017-12-24T16:25:42.431Z,5.70
2017-12-24T16:28:09.552Z,5.80
2017-12-24T16:30:35.961Z,5.80
2017-12-24T16:33:02.390Z,5.80
2017-12-24T16:35:28.781Z,5.70
2017-12-24T16:37:55.946Z,5.50
2017-12-24T16:40:22.385Z,5.50
2017-12-24T16:42:48.774Z,5.40
2017-12-24T16:45:15.914Z,5.40
2017-12-24T16:47:42.307Z,5.40
2017-12-24T16:50:08.704Z,5.30
2017-12-24T16:52:35.883Z,5.20
2017-12-24T16:55:02.268Z,5.20
2017-12-24T16:57:29.379Z,5.30
2017-12-24T16:59:55.755Z,5.30
2017-12-24T17:02:22.998Z,5.30
2017-12-24T17:04:49.372Z,5.40
2017-12-24T17:07:15.758Z,5.60
2017-12-24T17:09:42.139Z,5.50
2017-12-24T17:12:08.524Z,5.50
2017-12-24T17:14:35.656Z,5.30
2017-12-24T17:17:15.532Z,5.30
2017-12-24T17:19:56.049Z,5.30
2017-12-24T17:22:23.135Z,5.30
2017-12-24T17:24:50.285Z,5.20
2017-12-24T17:27:17.478Z,5.20
2017-12-24T17:29:43.868Z,5.20
2017-12-24T17:32:10.254Z,5.30
2017-12-24T17:34:36.628Z,5.30
2017-12-24T17:37:03.068Z,5.40
2017-12-24T17:39:30.201Z,5.40
2017-12-24T17:41:56.583Z,5.40
2017-12-24T17:44:22.973Z,5.30
2017-12-24T17:46:49.426Z,5.40
2017-12-24T17:49:16.575Z,5.30
2017-12-24T17:51:43.714Z,5.30
2017-12-24T17:54:10.838Z,5.30
2017-12-24T17:56:38.002Z,5.20
2017-12-24T17:59:04.381Z,5.20
2017-12-24T18:01:30.775Z,5.30
2017-12-24T18:03:57.897Z,5.20
2017-12-24T18:06:24.289Z,5.20
2017-12-24T18:08:50.676Z,5.20
2017-12-24T18:11:17.081Z,5.10
2017-12-24T18:13:43.467Z,5.10
2017-12-24T18:16:10.592Z,5.00
2017-12-24T18:18:37.730Z,5.00
2017-12-24T18:21:04.115Z,5.00
2017-12-24T18:23:30.495Z,4.90
2017-12-24T18:25:56.939Z,4.80
2017-12-24T18:28:24.793Z,4.70
2017-12-24T18:30:51.242Z,4.80
2017-12-24T18:33:17.631Z,4.70
2017-12-24T18:35:44.036Z,4.70
2017-12-24T18:38:10.426Z,4.60
2017-12-24T18:40:36.846Z,4.70
2017-12-24T18:43:03.309Z,4.60
2017-12-24T18:45:29.707Z,4.70
2017-12-24T18:47:56.157Z,4.80
2017-12-24T18:50:22.500Z,4.80
2017-12-24T18:52:48.892Z,4.80
2017-12-24T18:55:15.270Z,4.90
2017-12-24T18:57:42.400Z,4.80
2017-12-24T19:00:08.790Z,4.70
2017-12-24T19:02:35.189Z,4.90
2017-12-24T19:05:02.406Z,4.70
2017-12-24T19:07:29.585Z,4.80
2017-12-24T19:09:56.711Z,4.90
2017-12-24T19:12:23.090Z,4.90
2017-12-24T19:14:49.470Z,5.00
2017-12-24T19:17:15.857Z,5.00
2017-12-24T19:19:42.251Z,5.20
2017-12-24T19:22:10.122Z,5.30
2017-12-24T19:24:37.287Z,5.30
2017-12-24T19:27:03.664Z,5.30
2017-12-24T19:29:30.065Z,5.10
2017-12-24T19:31:56.474Z,5.00
2017-12-24T19:34:23.592Z,5.00
2017-12-24T19:36:49.979Z,5.00
2017-12-24T19:39:17.083Z,5.10
2017-12-24T19:41:43.483Z,5.10
2017-12-24T19:44:09.872Z,5.00
2017-12-24T19:46:37.067Z,4.90
2017-12-24T19:49:03.474Z,4.90
2017-12-24T19:51:29.867Z,4.80
2017-12-24T19:53:56.284Z,4.90
2017-12-24T19:56:22.694Z,4.90
2017-12-24T19:58:49.146Z,4.80
2017-12-24T20:01:15.534Z,4.80
2017-12-24T20:03:42.663Z,4.80
2017-12-24T20:06:09.172Z,4.80
2017-12-24T20:08:36.338Z,4.80
2017-12-24T20:11:02.714Z,4.80
2017-12-24T20:13:29.095Z,4.70
2017-12-24T20:16:08.487Z,4.60
2017-12-24T20:18:34.905Z,4.60
2017-12-24T20:21:01.307Z,4.60
2017-12-24T20:23:27.811Z,4.60
2017-12-24T20:25:54.164Z,4.60
2017-12-24T20:28:20.614Z,4.70
2017-12-24T20:30:47.762Z,4.60
2017-12-24T20:33:14.928Z,4.70
2017-12-24T20:35:41.344Z,4.70
2017-12-24T20:38:07.767Z,4.60
2017-12-24T20:40:34.160Z,4.60
2017-12-24T20:43:00.563Z,4.60
2017-12-24T20:45:26.955Z,4.50
2017-12-24T20:47:53.443Z,4.60
2017-12-24T20:50:19.945Z,4.60
2017-12-24T20:52:46.292Z,4.70
2017-12-24T20:55:12.674Z,4.80
2017-12-24T20:57:39.075Z,4.80
2017-12-24T21:00:05.459Z,4.90
2017-12-24T21:02:31.844Z,4.90
2017-12-24T21:04:58.249Z,5.10
2017-12-24T21:07:24.680Z,5.20
2017-12-24T21:09:51.102Z,5.30
2017-12-24T21:12:17.500Z,5.30
2017-12-24T21:14:44.032Z,5.20
2017-12-24T21:17:10.460Z,5.00
2017-12-24T21:19:36.866Z,5.00
2017-12-24T21:22:03.322Z,5.00
2017-12-24T21:24:29.730Z,5.00
2017-12-24T21:26:56.322Z,5.00
2017-12-24T21:29:22.729Z,4.90
2017-12-24T21:31:49.181Z,5.10
2017-12-24T21:34:15.570Z,5.20
2017-12-24T21:36:41.966Z,5.30
2017-12-24T21:39:08.383Z,5.30
2017-12-24T21:41:34.785Z,5.50
2017-12-24T21:44:01.212Z,5.50
2017-12-24T21:46:29.142Z,5.50
2017-12-24T21:48:56.332Z,5.40
2017-12-24T21:51:23.103Z,5.40
2017-12-24T21:53:49.503Z,5.40
2017-12-24T21:56:15.887Z,5.50
2017-12-24T21:58:43.036Z,5.80
2017-12-24T22:01:10.162Z,5.90
2017-12-24T22:03:37.188Z,5.90
2017-12-24T22:06:03.600Z,6.00
2017-12-24T22:08:29.985Z,6.00
2017-12-24T22:10:56.370Z,6.10
2017-12-24T22:13:22.769Z,6.10
2017-12-24T22:15:49.946Z,6.10
2017-12-24T22:18:16.360Z,6.10
2017-12-24T22:20:42.734Z,6.20
2017-12-24T22:23:09.122Z,6.20
2017-12-24T22:25:35.529Z,6.20
2017-12-24T22:28:02.681Z,6.20
2017-12-24T22:30:29.070Z,6.20
2017-12-24T22:32:55.451Z,6.30
2017-12-24T22:35:22.618Z,6.40
2017-12-24T22:37:48.991Z,6.40
2017-12-24T22:40:15.383Z,6.50
2017-12-24T22:42:41.802Z,6.50
2017-12-24T22:45:08.958Z,6.40
2017-12-24T22:47:36.115Z,6.40
2017-12-24T22:50:02.768Z,6.40
2017-12-24T22:52:29.164Z,6.30
2017-12-24T22:54:56.299Z,6.40
2017-12-24T22:57:22.703Z,6.40
2017-12-24T22:59:49.104Z,6.20
2017-12-24T23:02:15.494Z,6.30
2017-12-24T23:04:41.890Z,6.40
2017-12-24T23:07:08.293Z,6.50
2017-12-24T23:09:34.687Z,6.50
2017-12-24T23:12:01.097Z,6.50
2017-12-24T23:14:27.502Z,6.50
2017-12-24T23:16:53.954Z,6.50
2017-12-24T23:19:20.319Z,6.50
2017-12-24T23:21:46.693Z,6.60
2017-12-24T23:24:13.077Z,6.60
2017-12-24T23:26:39.476Z,6.70
2017-12-24T23:29:05.859Z,6.70
2017-12-24T23:31:33.032Z,6.70
2017-12-24T23:33:59.414Z,6.60
2017-12-24T23:36:25.804Z,6.70
2017-12-24T23:38:52.914Z,6.70
2017-12-24T23:41:19.446Z,6.70
2017-12-24T23:43:45.837Z,6.60
2017-12-24T23:46:12.926Z,6.70
2017-12-24T23:48:39.316Z,6.70
2017-12-24T23:51:05.799Z,6.70
2017-12-24T23:53:32.948Z,6.40
2017-12-24T23:56:00.872Z,6.40
2017-12-24T23:58:27.258Z,6.40
